Nearby METAR Reports

 

KMTN - Baltimore/Martin, Maryland, USA
Distance from station: SSE 8mi, 13km
Updated: Tue, 02-Sep-2014 6:50pm EDT
Mostly cloudy
Mostly cloudy
 Wind from W
Wind: W 17 mph , 28 km/h, Gust: 26 mph , 43 km/h
Temperature: 82°F , 28°C
Heat Index: 87°F , 31°C
Dew Point: 73°F , 23°C
Humidity: 74%
Barometer: 29.89 inHg , 1012.2 hPa
Clouds: Mostly cloudy
Visibility: 10 miles , 16 km
Cloud details: Partly cloudy 1200 ft
Partly cloudy 1900 ft
Mostly cloudy 6500 ft
2014/09/02 22:50 KMTN 022250Z 28015G23KT 10SM SCT012 SCT019 BKN065 28/23 A2989
KDMH - Baltimore/Dwntwn, Maryland, USA
Distance from station: SW 12mi, 19km
Updated: Tue, 02-Sep-2014 6:54pm EDT

 
Temperature: 77°F , 25°C
Dew Point: 70°F , 21°C
Humidity: 79%
Barometer: 29.84 inHg , 1010.5 hPa
2014/09/02 22:54 KDMH 022254Z AUTO 25/21 A2984 RMK AO1 SLP106 P0055 T02500211
 
KBWI - Balto/Wash Intl, Maryland, USA
Distance from station: SSW 20mi, 33km
Updated: Tue, 02-Sep-2014 7:15pm EDT
Light rain, Overcast
Light rain, Overcast
 Wind from E
Wind: E 5 mph , 7 km/h
Temperature: 75°F , 24°C
Dew Point: 70°F , 21°C
Humidity: 83%
Barometer: 29.86 inHg , 1011.2 hPa
Summary: Light rain
Clouds: Overcast
Visibility: 10 miles , 16 km
Cloud details: Partly cloudy 3900 ft
Mostly cloudy 8500 ft
Overcast 11000 ft
2014/09/02 23:15 KBWI 022315Z 08004KT 10SM -RA SCT039CB BKN085 OVC110 24/21 A2986 RMK AO2 TSE10 CB S MOV E P0000
KDMW - Carroll Cnty, Maryland, USA
Distance from station: WNW 30mi, 48km
Updated: Tue, 02-Sep-2014 7:30pm EDT
Thunderstorm, Partly cloudy
Thunderstorm, Partly cloudy
 Wind from SSW
Wind: SSW 8 mph , 13 km/h
Temperature: 73°F , 23°C
Dew Point: 70°F , 21°C
Humidity: 89%
Barometer: 29.90 inHg , 1012.5 hPa
Summary: Thunderstorm
Clouds: Partly cloudy
Visibility: 10 miles , 16 km
Cloud details: Partly cloudy 5500 ft
Partly cloudy 7000 ft
2014/09/02 23:30 KDMW 022330Z AUTO 21007KT 10SM TS SCT055 SCT070 23/21 A2990 RMK AO2 LTG DSNT E THRU SW P0001
 
KNAK - Annapolis/Naval, Maryland, USA
Distance from station: S 30mi, 48km
Updated: Tue, 02-Sep-2014 6:54pm EDT

 Wind from N
Wind: N 7 mph , 11 km/h
Temperature: 84°F , 29°C
Heat Index: 90°F , 32°C
Dew Point: 73°F , 23°C
Humidity: 70%
Barometer: 29.85 inHg , 1010.8 hPa
Visibility: 10 miles , 16 km
2014/09/02 22:54 KNAK 022254Z AUTO 35006KT 10SM 29/23 A2985 RMK AO2 SLP111 T02890233
KW29 - Stevensville, Maryland, USA
Distance from station: SSE 31mi, 50km
Updated: Tue, 02-Sep-2014 7:30pm EDT

 Wind from NW
Wind: NW 5 mph , 7 km/h
Temperature: 82°F , 28°C
Heat Index: 86°F , 30°C
Dew Point: 72°F , 22°C
Humidity: 70%
Barometer: 29.87 inHg , 1011.5 hPa
Visibility: 10 miles , 16 km
2014/09/02 23:30 KW29 022330Z AUTO 31004KT 10SM 28/22 A2987 RMK AO1 LTG DSNT W
 
KCGS - College Park, Maryland, USA
Distance from station: SW 38mi, 61km
Updated: Tue, 02-Sep-2014 7:30pm EDT
Mostly cloudy
Mostly cloudy
 Wind from NW
Wind: NW 9 mph , 15 km/h
Temperature: 79°F , 26°C
Dew Point: 70°F , 21°C
Humidity: 74%
Barometer: 29.89 inHg , 1012.2 hPa
Clouds: Mostly cloudy
Visibility: 10 miles , 16 km
Cloud details: Partly cloudy 6500 ft
Partly cloudy 8000 ft
Mostly cloudy 12000 ft
2014/09/02 23:30 KCGS 022330Z AUTO 31008KT 10SM SCT065 SCT080 BKN120 26/21 A2989 RMK AO1
KGAI - Gaithersburg, Maryland, USA
Distance from station: WSW 40mi, 65km
Updated: Tue, 02-Sep-2014 7:35pm EDT
Thunderstorm, Partly cloudy
Thunderstorm, Partly cloudy
 Wind from calm
Wind: Calm
Temperature: 72°F , 22°C
Dew Point: 70°F , 21°C
Humidity: 94%
Barometer: 29.94 inHg , 1013.9 hPa
Summary: Thunderstorm
Clouds: Partly cloudy
Visibility: 4 miles , 6 km
Cloud details: Partly cloudy 1500 ft
Partly cloudy 3300 ft
Partly cloudy 4600 ft
2014/09/02 23:35 KGAI 022335Z AUTO 00000KT 4SM TS SCT015 SCT033 SCT046 22/21 A2994 RMK AO1 LTG DSNT ALQDS P0032
 
KTHV - York, Pennsylvania, USA
Distance from station: NNW 40mi, 65km
Updated: Tue, 02-Sep-2014 6:53pm EDT
Clear
Clear
 Wind from varies
Wind: varies 3 mph , 6 km/h
Temperature: 72°F , 22°C
Dew Point: 66°F , 19°C
Humidity: 83%
Barometer: 29.86 inHg , 1011.2 hPa
Clouds: Clear
Visibility: 10 miles , 16 km
2014/09/02 22:53 KTHV 022253Z AUTO VRB03KT 10SM CLR 22/19 A2986 RMK AO2 LTG DSNT NE RAE20 SLP110 P0001 T02170194
KFDK - Frederick, Maryland, USA
Distance from station: W 47mi, 75km
Updated: Tue, 02-Sep-2014 7:20pm EDT
Nearby thunderstorm, Mostly cloudy
Nearby thunderstorm, Mostly cloudy
 Wind from S
Wind: S 9 mph , 15 km/h
Temperature: 73°F , 23°C
Dew Point: 73°F , 23°C
Humidity: 100%
Barometer: 29.92 inHg , 1013.2 hPa
Summary: Nearby Thunderstorm
Clouds: Mostly cloudy
Visibility: 10 miles , 16 km
Cloud details: Mostly cloudy 3700 ft
Mostly cloudy 6000 ft
2014/09/02 23:20 KFDK 022320Z 18008KT 10SM VCTS BKN037 BKN060 23/23 A2992
 
KESN - Easton/Newnam, Maryland, USA
Distance from station: SSE 48mi, 78km
Updated: Tue, 02-Sep-2014 6:53pm EDT
Mostly cloudy
Mostly cloudy
 Wind from calm
Wind: Calm
Temperature: 91°F , 33°C
Heat Index: 98°F , 37°C
Dew Point: 72°F , 22°C
Humidity: 52%
Barometer: 29.89 inHg , 1012.2 hPa
Clouds: Mostly cloudy
Visibility: 10 miles , 16 km
Cloud details: Mostly cloudy 8000 ft
Mostly cloudy 10000 ft
2014/09/02 22:53 KESN 022253Z 00000KT 10SM BKN080 BKN100 33/22 A2989
KDCA - Washington/Natl, Washington D.c., USA
Distance from station: SW 49mi, 79km
Updated: Tue, 02-Sep-2014 7:30pm EDT
Thunderstorm, Mostly cloudy
Thunderstorm, Mostly cloudy
 Wind from NNW
Wind: NNW 17 mph , 28 km/h, Gust: 33 mph , 54 km/h
Temperature: 86°F , 30°C
Heat Index: 91°F , 33°C
Dew Point: 70°F , 21°C
Humidity: 59%
Barometer: 29.88 inHg , 1011.9 hPa
Summary: Thunderstorm
Clouds: Mostly cloudy
Visibility: 10 miles , 16 km
Cloud details: Few Clouds 1200 ft
Mostly cloudy 6500 ft
Mostly cloudy 10000 ft
Mostly cloudy 20000 ft
2014/09/02 23:30 KDCA 022330Z 34015G29KT 10SM TS FEW012 BKN065CB BKN100 BKN200 30/21 A2988 RMK AO2 PK WND 33029/2328 TSB15 FRQ LTGICCG SW-NE TS SW-NE MOV E SHELF CLOUD SW-NE VCSH W-NE
 
KLNS - Lancaster, Pennsylvania, USA
Distance from station: N 49mi, 79km
Updated: Tue, 02-Sep-2014 7:23pm EDT
Light rain, Few clouds
Light rain, Few clouds
 Wind from WSW
Wind: WSW 3 mph , 6 km/h
Temperature: 73°F , 23°C
Dew Point: 66°F , 19°C
Humidity: 78%
Barometer: 29.85 inHg , 1010.8 hPa
Summary: Light rain
Clouds: Few Clouds
Visibility: 6 miles , 10 km
Cloud details: Few Clouds 11000 ft
2014/09/02 23:23 KLNS 022323Z 24003KT 6SM -RA FEW110 23/19 A2985 RMK AO2 LTG DSNT E-S P0003 T02280194
KILG - Wilmington, Delaware, USA
Distance from station: ENE 50mi, 81km
Updated: Tue, 02-Sep-2014 6:51pm EDT
Clear
Clear
 Wind from SSW
Wind: SSW 7 mph , 11 km/h
Temperature: 88°F , 31°C
Heat Index: 95°F , 35°C
Dew Point: 72°F , 22°C
Humidity: 59%
Barometer: 29.85 inHg , 1010.8 hPa
Clouds: Clear
Visibility: 10 miles , 16 km
2014/09/02 22:51 KILG 022251Z 21006KT 10SM CLR 31/22 A2985 RMK AO2 SLP107 T03060217 $